Flight Track Log - Related Links

Times and Time Zones

All times are in EDT time to prevent confusion due to time zone crossing. See the C-GTNG flight status page for this flight to view local times or setup timezone preferences in your user account.

Time Position Orientation Groundspeed Altitude Reporting Facility
EDT Latitude Longitude Course Direction KTS MPH feet Rate Location/Type
Sun 08:35:14 PM 50.1833 -118.9667 103° East 270 311 12,600  Level Vancouver Center
Sun 08:36:15 PM 50.1667 -118.8500 103° East 280 322 13,600 1,438 Climbing Vancouver Center
Sun 08:37:15 PM 50.1667 -118.7333 90° East 250 288 15,500 1,528 Climbing Vancouver Center
Sun 08:38:01 PM 50.1333 -118.7167 162° South 250 288 16,300 1,811 Climbing Edmonton Center
Sun 08:39:01 PM 50.1500 -118.6167 75° East 250 288 18,700 1,750 Climbing Edmonton Center
Sun 08:40:01 PM 50.1667 -118.5000 77° East 250 288 19,800 1,200 Climbing Edmonton Center
Sun 08:41:01 PM 50.1667 -118.3833 90° East 270 311 21,100 1,500 Climbing Edmonton Center
Sun 08:42:01 PM 50.1667 -118.2500 90° East 280 322 22,800 1,550 Climbing Edmonton Center
Sun 08:43:01 PM 50.1833 -118.1500 75° East 280 322 24,200 992 Climbing Edmonton Center
Sun 08:44:14 PM 50.2167 -117.9500 75° East 300 345 25,000 358 Climbing Vancouver Center
Sun 08:45:15 PM 50.2500 -117.7833 73° East 340 391 25,000  Level Vancouver Center
Sun 08:46:15 PM 50.2667 -117.6333 80° East 380 437 25,000  Level Vancouver Center
Sun 08:47:14 PM 50.3000 -117.4667 73° East 390 449 25,000  Level Vancouver Center
Sun 08:48:14 PM 50.3000 -117.2833 90° East 400 460 25,000  Level Vancouver Center
Sun 08:49:14 PM 50.3500 -117.1167 65° Northeast 400 460 25,000  Level Vancouver Center
Sun 08:50:15 PM 50.3833 -116.9500 73° East 400 460 25,000  Level Vancouver Center
Sun 08:51:01 PM 50.3833 -116.8833 90° East 400 460 25,000  Level Edmonton Center
Sun 08:52:01 PM 50.4000 -116.7167 81° East 410 472 25,000  Level Edmonton Center
Sun 08:53:14 PM 50.4333 -116.4167 80° East 420 483 25,000  Level Vancouver Center
Sun 08:54:01 PM 50.4500 -116.3500 69° East 400 460 25,000  Level Edmonton Center
Sun 08:55:01 PM 50.4833 -116.2000 71° East 400 460 25,000  Level Edmonton Center
Sun 08:56:01 PM 50.5167 -116.0333 72° East 390 449 25,000  Level Edmonton Center
Sun 08:57:01 PM 50.5667 -115.8833 62° Northeast 390 449 25,000  Level Edmonton Center
Sun 08:58:01 PM 50.6000 -115.7167 72° East 390 449 25,000  Level Edmonton Center
Sun 08:59:01 PM 50.6500 -115.5500 65° Northeast 390 449 25,000  Level Edmonton Center
Sun 09:00:01 PM 50.6833 -115.4000 71° East 390 449 25,000 -750 Level Edmonton Center
Sun 09:01:01 PM 50.7167 -115.2167 74° East 390 449 23,500 -1,550 Descending Edmonton Center
Sun 09:02:01 PM 50.7333 -115.0833 79° East 380 437 21,900 -1,950 Descending Edmonton Center
Sun 09:03:01 PM 50.7833 -114.9333 62° Northeast 340 391 19,600 -2,400 Descending Edmonton Center
Sun 09:04:01 PM 50.8333 -114.8167 56° Northeast 320 368 17,100 -2,050 Descending Edmonton Center
Sun 09:05:01 PM 50.8500 -114.7167 75° East 300 345 15,500 -2,200 Descending Edmonton Center
Sun 09:06:01 PM 50.8667 -114.5500 81° East 290 334 12,700 -2,600 Descending Edmonton Center
Sun 09:07:01 PM 50.8500 -114.4333 103° East 280 322 10,300 -2,100 Descending Edmonton Center
Sun 09:08:01 PM 50.8833 -114.3667 52° Northeast 220 253 8,500 -1,700 Descending Edmonton Center
Sun 09:09:01 PM 50.9333 -114.3833 348° North 200 230 6,900 -1,300 Descending Edmonton Center
Sun 09:10:01 PM 50.9667 -114.3833 360° North 160 184 5,900 -1,050 Descending Edmonton Center
Sun 09:11:01 PM 51.0167 -114.4000 348° North 120 138 4,800 -700 Descending Edmonton Center
Sun 09:12:01 PM 51.0333 -114.4000 360° North 100 115 4,500 -300 Descending Edmonton Center

Login

Don't have an account? Register now (free) for customized features, flight alerts, and more!